Granite Reef Wash - ID # 4728

Current at Gage | Station Description | Rating Curve | Rating Table | Cross Section | DSS

Page Last Updated: 11 December 2018


View Larger Map

ID History | Site Data | Brief Rating | Water Year Peaks | Runoff History | Flood Frequency | Crest Gages | Site Precip Data

Reload Page   |  ASWR   |   Streamflow Homepage   |   FCD Home Page


GAGE ID HISTORY

ID Elevation of
Instrument
in Gage Height
Elevation of
Instrument
in Datum
Period
       
4728 1.28 feet 1,204.00 feet NAVD88 06/26/2007 -- Current

Back to Top   |   Streamflow Homepage   |   FCD Home Page

SITE DATA

STATUS Active
LOCATION On McDowell Road near Granite Reef Road
DRAINAGE AREA 4.7 mi2
STREAM TYPE Culvert
JURISDICTION Scottsdale, Arizona
WATERSHED Lower Indian Bend
SECTION/TOWNSHIP/RANGE S36 T2N R4E
LATITUDE N 33° 27' 57.6"  |  +33.46599
LONGITUDE W 111° 53' 54.9"  |  -111.89857
ARIZONA STATE PLANE E 705515  | N 897073
USGS QUAD SHEET Tempe 7.5-Minute
STREAMGAGE INSTALLATION DATE 06/26/2007 - WY 2007
PERIOD OF AVAILABLE DATA RECORD 06/26/2007 - Current
LENGTH OF AVAILABLE DATA RECORD (AS OF 10/01/2018) 11.27 Years | 4,115 Days
GAPS (> 2 DAYS) IN RECORD None
STAGE GAGE TYPE Pressure transducer
STAGE GAGE ELEVATION 1.28 feet Gage Height
STAFF GAGES 0
CREST STAGE GAGES 1
ZERO GAGE HEIGHT ELEVATION 1,202.718 feet NAVD88
POINT OF ZERO FLOW 0.6 feet Gage Height
EXTREME FOR PERIOD OF RECORD 235 cfs | 7.76 feet | 09/08/2014

Back to Top   |   Streamflow Homepage   |   FCD Home Page

BRIEF RATING

Current Rating = #2 - Applied since 06/26/2007
Gage
Height
(feet)
Discharge
(cfs)
Gage
Height
(feet)
Discharge
(cfs)
0.0 0 8.62 400
6.81 80 9.03 480
7.35 160 9.46 560
7.78 240 9.91 640
8.21 320 10.41 720

Back to Top   |   Streamflow Homepage   |   FCD Home Page

WATER YEAR PEAKS

Water
Year
Peak
Gage Height
(feet)
Peak
Discharge
(cfs)
Date of
Peak
2020      
2019      
2018 5.99 64 08/12/2018
2017 3.78 30 07/16/2017
2016 4.76 44 08/02/2016
2015 4.04 33 08/31/2015
2014 7.76 235 09/08/2014
2013 5.73 60 01/26/2013
2012 7.08 112 08/23/2012
2011 6.66 77 10/05/2010
2010 6.05 65 01/21/2010
2009 5.98 64 09/05/2009
2008 6.61 76 08/07/2008
2007 5.76 60 07/30/2007

Back to Top   |   Streamflow Homepage   |   FCD Home Page

RUNOFF EVENT HISTORY

Date of
Peak
Time of
Peak
Runoff
Start
Runoff
End
Duration
(hours)
Peak
Stage
(feet GH)
Peak
Discharge
(CFS)
Water
Year
View a Plot of These Data
               
08/21/2018 05:42 08/21/2018 05:24 08/21/2018 10:07 4.7 2.72 17 2018
08/12/2018 19:01 08/12/2018 18:24 08/13/2018 01:43 7.3 5.99 64 2018
08/11/2018 00:24 08/10/2018 23:19 08/11/2018 05:33 6.2 2.97 20 2018
08/10/2018 00:44 08/09/2018 23:54 08/10/2018 08:29 8.6 5.44 55 2018
08/08/2018 20:44 08/08/2018 20:09 08/09/2018 01:24 5.3 2.67 17 2018
01/09/2018 22:52 01/09/2018 22:17 01/10/2018 02:38 4.4 1.95 10 2018
08/23/2017 23:00 08/23/2017 22:41 08/24/2017 02:35 3.9 3.25 23 2017
08/03/2017 18:02 08/03/2017 17:36 08/04/2017 00:00 6.4 3.20 23 2017
07/24/2017 06:57 07/24/2017 06:29 07/24/2017 14:07 7.6 2.66 17 2017
07/23/2017 20:10 07/23/2017 19:44 07/24/2017 00:00 4.4 3.68 28 2017
07/16/2017 22:42 07/16/2017 22:19 07/17/2017 03:34 5.3 3.78 30 2017
02/28/2017 13:20 02/28/2017 12:44 02/28/2017 17:35 4.9 2.03 11 2017
02/18/2017 20:54 02/18/2017 09:58 02/18/2017 23:55 14.0 2.08 11 2017
01/20/2017 23:21 01/20/2017 18:34 01/21/2017 02:03 7.5 3.20 23 2017
01/01/2017 15:03 01/01/2017 14:24 01/01/2017 19:07 4.7 1.88 9 2017
12/24/2016 16:07 12/24/2016 15:34 12/25/2016 00:00 8.4 1.98 10 2017
12/22/2016 11:06 12/22/2016 10:28 12/22/2016 14:40 4.2 2.63 16 2017
12/22/2016 04:02 12/22/2016 02:10 12/22/2016 07:09 5.0 2.61 16 2017
11/27/2016 20:51 11/27/2016 20:02 11/28/2016 00:00 4.0 2.01 10 2017
11/03/2016 18:26 11/03/2016 17:42 11/04/2016 00:00 6.3 2.20 12 2017
08/23/2016 06:35 08/23/2016 05:22 08/23/2016 10:48 5.4 2.22 12 2016
08/21/2016 18:21 08/21/2016 18:03 08/22/2016 06:00 12.0 2.92 19 2016
08/20/2016 19:29 08/20/2016 19:01 08/21/2016 06:00 11.0 2.55 15 2016
08/05/2016 10:04 08/05/2016 09:06 08/05/2016 16:28 7.4 2.57 16 2016
08/02/2016 19:11 08/02/2016 18:22 08/03/2016 04:58 10.6 4.76 44 2016
07/29/2016 20:55 07/29/2016 20:20 07/30/2016 03:05 6.8 4.07 34 2016
07/18/2016 04:12 07/18/2016 03:49 07/18/2016 07:57 4.1 2.20 12 2016
06/29/2016 22:53 06/29/2016 22:39 06/30/2016 04:15 5.6 2.75 17 2016
04/08/2016 02:22 04/08/2016 00:59 04/08/2016 07:52 6.9 3.17 22 2016
01/31/2016 23:47 01/31/2016 23:08 02/01/2016 04:20 5.2 2.92 19 2016
01/07/2016 10:10 01/07/2016 09:16 01/07/2016 21:25 12.3 3.82 30 2016
01/06/2016 06:00 01/06/2016 06:00 01/06/2016 08:52 2.9 2.55 15 2016
01/05/2016 19:09 01/05/2016 15:18 01/05/2016 23:31 8.2 2.47 15 2016
01/04/2016 21:26 01/04/2016 20:22 01/05/2016 03:22 7.0 2.80 18 2016
10/20/2015 04:14 10/20/2015 03:31 10/20/2015 10:50 7.3 2.65 16 2016
10/18/2015 19:35 10/18/2015 18:30 10/19/2015 04:05 9.6 2.42 14 2016
10/17/2015 14:06 10/17/2015 13:11 10/17/2015 19:43 6.5 2.80 18 2016
08/31/2015 20:57 08/31/2015 20:18 09/01/2015 01:37 5.3 4.04 33 2015
08/07/2015 18:00 08/07/2015 17:09 08/07/2015 22:37 5.5 2.00 10 2015
07/31/2015 18:00 07/31/2015 17:51 07/31/2015 20:33 2.7 1.70 8 2015
07/17/2015 22:08 07/17/2015 21:59 07/18/2015 01:46 3.8 2.27 13 2015
06/29/2015 22:47 06/29/2015 22:38 06/30/2015 02:44 4.1 2.55 15 2015
05/15/2015 16:24 05/15/2015 15:50 05/16/2015 08:18 16.5 3.56 27 2015
05/04/2015 05:17 05/04/2015 01:24 05/04/2015 09:22 8.0 2.70 17 2015
04/26/2015 06:02 04/26/2015 05:37 04/26/2015 09:52 4.3 2.98 20 2015
03/19/2015 03:29 03/19/2015 02:18 03/19/2015 06:52 4.6 1.68 8 2015
03/02/2015 13:22 03/02/2015 09:59 03/02/2015 18:30 8.5 2.40 14 2015
01/31/2015 12:20 01/31/2015 11:32 01/31/2015 15:57 4.4 1.88 9 2015
01/30/2015 16:18 01/29/2015 20:07 01/31/2015 02:20 30.2 2.56 16 2015
01/13/2015 13:10 01/13/2015 12:55 01/13/2015 16:10 3.3 2.23 12 2015
12/31/2014 10:21 12/31/2014 08:53 12/31/2014 14:20 5.5 1.78 8 2015
12/04/2014 08:59 12/04/2014 07:11 12/04/2014 14:20 7.2 2.76 18 2015
09/27/2014 15:18 09/27/2014 14:38 09/28/2014 00:33 9.9 6.48 73 2014
09/27/2014 04:39 09/27/2014 04:06 09/27/2014 07:41 3.6 2.78 18 2014
09/17/2014 12:42 09/17/2014 12:03 09/17/2014 21:26 9.4 2.38 14 2014
09/08/2014 03:11 09/08/2014 01:18 09/08/2014 21:26 20.1 7.76 235 2014
08/21/2014 22:23 08/21/2014 21:29 08/22/2014 03:26 6.0 2.36 14 2014
08/19/2014 13:16 08/19/2014 12:50 08/19/2014 17:16 4.4 3.38 25 2014
08/03/2014 18:52 08/03/2014 18:19 08/04/2014 03:26 9.1 2.86 19 2014
08/01/2014 21:26 08/01/2014 20:53 08/02/2014 00:44 3.9 2.36 14 2014
07/09/2014 00:07 07/08/2014 23:38 07/09/2014 03:07 3.5 2.13 11 2014
03/01/2014 18:40 03/01/2014 18:06 03/02/2014 05:10 11.1 4.96 47 2014
03/01/2014 12:52 03/01/2014 12:34 03/01/2014 17:31 5.0 5.20 51 2014
12/20/2013 03:16 12/19/2013 19:24 12/20/2013 13:00 17.6 3.78 30 2014
11/23/2013 21:10 11/23/2013 19:47 11/24/2013 02:42 6.9 1.88 9 2014
11/23/2013 01:59 11/22/2013 23:02 11/23/2013 11:29 12.5 5.20 51 2014
11/22/2013 07:21 11/21/2013 22:42 11/22/2013 17:29 18.8 5.66 58 2014
09/09/2013 12:45 09/09/2013 07:27 09/10/2013 01:16 17.8 3.50 26 2013
09/08/2013 11:02 09/08/2013 08:29 09/08/2013 16:35 8.1 2.48 15 2013
07/21/2013 11:40 07/21/2013 11:14 07/21/2013 19:40 8.4 2.80 18 2013
07/20/2013 21:17 07/20/2013 20:43 07/21/2013 07:15 10.5 3.16 22 2013
07/16/2013 19:57 07/16/2013 19:04 07/17/2013 02:40 7.6 4.90 46 2013
03/08/2013 05:51 03/08/2013 04:51 03/09/2013 08:56 28.1 3.03 21 2013
02/20/2013 19:21 02/20/2013 17:53 02/21/2013 02:39 8.8 3.16 22 2013
01/26/2013 08:55 01/26/2013 06:15 01/28/2013 02:55 44.7 5.73 60 2013
12/15/2012 18:40 12/15/2012 16:34 12/16/2012 08:54 16.3 2.86 19 2013
12/15/2012 02:19 12/15/2012 01:04 12/15/2012 08:54 7.8 1.98 10 2013
12/13/2012 23:04 12/13/2012 22:26 12/14/2012 10:37 12.2 3.78 30 2013
09/07/2012 10:39 09/07/2012 09:48 09/07/2012 21:08 11.3 6.48 73 2012
08/23/2012 02:55 08/23/2012 02:16 08/23/2012 23:48 21.5 7.08 112 2012
08/21/2012 23:29 08/21/2012 22:42 08/22/2012 06:26 7.7 3.56 27 2012
08/17/2012 05:45 08/17/2012 04:52 08/17/2012 10:36 5.7 2.78 18 2012
07/28/2012 21:00 07/28/2012 20:03 07/29/2012 03:02 7.0 2.78 18 2012
07/14/2012 16:54 07/14/2012 16:00 07/15/2012 05:48 13.8 4.98 47 2012
07/12/2012 01:00 07/12/2012 00:15 07/12/2012 07:08 6.9 4.98 47 2012
05/09/2012 17:11 05/09/2012 16:40 05/09/2012 22:54 6.2 3.60 27 2012
03/18/2012 06:21 03/18/2012 05:50 03/18/2012 10:28 4.6 1.93 10 2012
12/13/2011 14:40 12/13/2011 14:03 12/14/2011 03:03 13.0 3.00 20 2012
12/13/2011 06:02 12/12/2011 21:51 12/13/2011 11:06 13.3 2.40 14 2012
11/13/2011 03:37 11/13/2011 01:04 11/13/2011 07:21 6.3 2.28 13 2012
11/07/2011 06:41 11/07/2011 05:51 11/07/2011 09:54 4.1 2.63 16 2012
11/05/2011 01:18 11/05/2011 00:32 11/05/2011 05:18 4.8 2.73 17 2012
10/31/2011 00:52 10/31/2011 00:02 10/31/2011 02:40 2.6 1.88 9 2012
10/25/2011 19:09 10/25/2011 18:51 10/25/2011 21:33 2.7 1.90 9 2012
10/18/2011 03:57 10/18/2011 03:20 10/18/2011 10:27 7.1 1.98 10 2012
10/04/2011 20:45 10/04/2011 19:55 10/04/2011 22:47 2.9 1.98 10 2012
08/03/2011 23:05 08/03/2011 22:34 08/04/2011 01:01 2.5 1.90 9 2011
07/24/2011 23:36 07/24/2011 22:08 07/25/2011 02:47 4.7 4.30 37 2011
07/11/2011 04:27 07/11/2011 03:13 07/11/2011 09:22 6.2 5.53 56 2011
04/09/2011 07:34 04/09/2011 07:13 04/09/2011 10:29 3.3 1.58 7 2011
02/27/2011 02:08 02/27/2011 01:09 02/27/2011 10:38 9.5 2.38 14 2011
02/20/2011 11:58 02/20/2011 11:28 02/20/2011 15:34 4.1 2.00 10 2011
02/20/2011 00:21 02/19/2011 23:45 02/20/2011 05:21 5.6 2.73 17 2011
02/19/2011 16:12 02/19/2011 15:07 02/19/2011 20:24 5.3 2.38 14 2011
12/30/2010 03:34 12/30/2010 00:35 12/30/2010 08:48 8.2 3.58 27 2011
12/29/2010 18:16 12/29/2010 15:29 12/29/2010 23:44 8.3 2.88 19 2011
12/23/2010 00:27 12/22/2010 23:55 12/23/2010 04:54 5.0 2.68 17 2011
12/22/2010 21:16 12/22/2010 20:25 12/22/2010 23:39 3.2 2.10 11 2011
10/21/2010 05:13 10/21/2010 04:33 10/21/2010 11:22 6.8 2.93 19 2011
10/05/2010 17:16 10/05/2010 13:32 10/06/2010 07:26 17.9 6.66 77 2011
08/24/2010 19:02 08/24/2010 18:25 08/24/2010 21:46 3.4 2.40 14 2010
08/22/2010 00:26 08/21/2010 22:58 08/22/2010 05:55 7.0 3.00 20 2010
08/17/2010 20:00 08/17/2010 18:39 08/18/2010 01:17 6.7 5.58 57 2010
07/31/2010 01:38 07/31/2010 01:14 07/31/2010 09:01 7.8 2.30 13 2010
07/16/2010 19:48 07/16/2010 19:10 07/16/2010 23:15 4.1 2.18 12 2010
04/12/2010 15:28 04/12/2010 10:33 04/13/2010 03:28 16.9 1.46 6 2010
03/23/2010 06:30 03/23/2010 05:01 03/23/2010 11:10 6.2 3.00 20 2010
03/09/2010 13:41 03/09/2010 12:53 03/09/2010 16:43 3.8 1.98 10 2010
03/07/2010 21:46 03/07/2010 20:38 03/08/2010 01:02 4.4 1.98 10 2010
03/07/2010 13:27 03/07/2010 12:25 03/07/2010 17:12 4.8 2.28 13 2010
02/28/2010 01:11 02/28/2010 00:13 02/28/2010 14:18 14.1 3.48 26 2010
02/22/2010 12:31 02/22/2010 12:05 02/22/2010 17:37 5.5 2.63 16 2010
01/21/2010 21:47 01/21/2010 20:23 01/23/2010 00:44 28.4 6.05 65 2010
01/21/2010 05:19 01/21/2010 03:55 01/21/2010 09:08 5.2 3.95 32 2010
01/19/2010 20:05 01/19/2010 18:15 01/20/2010 02:59 8.7 4.08 34 2010
12/22/2009 15:39 12/22/2009 15:07 12/22/2009 18:25 3.3 2.03 11 2010
12/07/2009 14:47 12/07/2009 14:16 12/07/2009 18:38 4.4 2.81 18 2010
10/26/2009 23:33 10/26/2009 22:03 10/27/2009 01:32 3.5 1.88 9 2010
09/05/2009 10:38 09/05/2009 09:06 09/05/2009 16:56 7.8 5.98 64 2009
09/03/2009 22:34 09/03/2009 21:52 09/04/2009 00:01 2.2 1.80 9 2009
08/21/2009 20:39 08/21/2009 20:09 08/21/2009 23:25 3.3 2.65 16 2009
08/13/2009 03:17 08/13/2009 02:32 08/13/2009 06:47 4.3 3.31 24 2009
07/21/2009 06:34 07/21/2009 06:02 07/21/2009 09:15 3.2 1.80 8 2009
07/03/2009 21:26 07/03/2009 21:07 07/03/2009 23:43 2.6 3.00 20 2009
02/09/2009 21:39 02/09/2009 20:49 02/10/2009 00:07 3.3 2.81 18 2009
01/04/2009 22:42 01/04/2009 13:00 01/05/2009 03:00 14.0 1.86 9 2009
12/26/2008 03:03 12/26/2008 01:03 12/26/2008 09:44 8.7 2.53 15 2009
12/25/2008 15:17 12/25/2008 14:02 12/25/2008 19:38 5.6 3.11 21 2009
12/22/2008 20:24 12/22/2008 19:47 12/23/2008 07:20 11.6 1.88 9 2009
12/18/2008 07:34 12/18/2008 07:08 12/18/2008 09:50 2.7 1.68 8 2009
11/27/2008 06:58 11/27/2008 05:55 11/27/2008 10:22 4.5 2.36 14 2009
09/07/2008 22:21 09/07/2008 22:07 09/08/2008 00:45 2.6 1.45 6 2008
08/28/2008 23:53 08/28/2008 21:41 08/29/2008 04:21 6.7 4.86 45 2008
08/27/2008 03:12 08/27/2008 02:49 08/27/2008 06:12 3.4 2.40 14 2008
08/25/2008 21:44 08/25/2008 21:15 08/26/2008 03:56 6.7 2.83 18 2008
08/07/2008 21:27 08/07/2008 20:40 08/08/2008 08:53 12.2 6.61 76 2008
08/05/2008 23:14 08/05/2008 22:51 08/06/2008 04:22 5.5 2.15 12 2008
07/20/2008 03:25 07/20/2008 03:12 07/20/2008 06:12 3.0 1.73 8 2008
07/13/2008 16:33 07/13/2008 16:19 07/13/2008 22:47 6.5 4.26 36 2008
07/11/2008 02:09 07/10/2008 21:55 07/11/2008 09:07 11.2 3.00 20 2008
05/23/2008 00:41 05/22/2008 21:58 05/23/2008 04:05 6.1 1.95 10 2008
02/15/2008 18:39 02/15/2008 18:11 02/15/2008 21:00 2.8 2.40 14 2008
02/04/2008 16:55 02/04/2008 14:44 02/04/2008 19:59 5.3 2.11 11 2008
01/27/2008 23:25 01/27/2008 11:30 01/28/2008 05:50 18.3 3.65 28 2008
01/07/2008 13:27 01/07/2008 09:06 01/07/2008 15:55 6.8 3.50 26 2008
12/08/2007 01:13 12/07/2007 16:55 12/08/2007 10:15 17.3 2.40 14 2008
12/01/2007 00:48 Data Unavailable 12/01/2007 04:20   3.75 29 2008
11/30/2007 15:39 11/30/2007 14:48 Data Unavailable   3.11 21 2008
08/29/2007 21:26 08/29/2007 20:57 08/29/2007 23:13 2.3 2.11 11 2007
08/14/2007 03:30 08/14/2007 03:16 08/14/2007 05:14 2.0 1.65 7 2007
08/04/2007 21:32 08/04/2007 21:00 08/05/2007 03:32 6.5 1.95 10 2007
08/03/2007 23:53 08/03/2005 23:37 08/04/2005 09:32 9.9 1.95 10 2007
07/30/2007 17:09 07/30/2007 16:27 07/30/2007 21:32 5.1 5.76 60 2007

Back to Top   |   Streamflow Homepage   |   FCD Home Page


FLOOD FLOW FREQUENCY

Flood Flow Frequency
Based on FEMA 1995 Flood Insurance Study
Magnitude and Probability of Instantaneous Peak Flow  |  Discharge, in cfs, for indicated Recurrence Interval
10-year 50-year 100-year 500-year
580 950 1,240 2,660

Back to Top   |   Streamflow Homepage   |   FCD Home Page

CREST STAGE GAGES

Crest Gage Number Pin Elevation
(Feet, Gage Height)
Additional Information
1 1.29 Located on left wingwall near transducer

Back to Top   |   Streamflow Homepage   |   FCD Home Page